sensor_id;sensor_type;location;lat;lon;timestamp;pressure;altitude;pressure_sealevel;temperature;humidity
45078;BME280;60508;42.622;25.416;2023-02-15T00:00:27;97846.47;;;4.22;54.58
45078;BME280;60508;42.622;25.416;2023-02-15T00:02:56;97833.97;;;4.23;54.58
45078;BME280;60508;42.622;25.416;2023-02-15T00:05:23;97839.84;;;4.18;54.50
45078;BME280;60508;42.622;25.416;2023-02-15T00:07:49;97849.47;;;4.19;53.98
45078;BME280;60508;42.622;25.416;2023-02-15T00:10:15;97835.03;;;4.13;54.41
45078;BME280;60508;42.622;25.416;2023-02-15T00:12:42;97849.00;;;4.15;54.21
45078;BME280;60508;42.622;25.416;2023-02-15T00:15:08;97835.72;;;4.15;54.15
45078;BME280;60508;42.622;25.416;2023-02-15T00:17:34;97834.41;;;4.11;53.84
45078;BME280;60508;42.622;25.416;2023-02-15T00:20:00;97831.38;;;4.14;54.29
45078;BME280;60508;42.622;25.416;2023-02-15T00:22:26;97838.66;;;4.20;54.54
45078;BME280;60508;42.622;25.416;2023-02-15T00:24:53;97842.50;;;4.18;54.30
45078;BME280;60508;42.622;25.416;2023-02-15T00:27:19;97832.19;;;4.15;54.53
45078;BME280;60508;42.622;25.416;2023-02-15T00:29:46;97844.97;;;4.19;54.38
45078;BME280;60508;42.622;25.416;2023-02-15T00:32:12;97834.16;;;4.21;54.27
45078;BME280;60508;42.622;25.416;2023-02-15T00:34:39;97840.50;;;4.20;54.22
45078;BME280;60508;42.622;25.416;2023-02-15T00:37:05;97832.88;;;4.17;54.20
45078;BME280;60508;42.622;25.416;2023-02-15T00:39:32;97840.50;;;4.20;54.21
45078;BME280;60508;42.622;25.416;2023-02-15T00:41:58;97835.00;;;4.22;54.07
45078;BME280;60508;42.622;25.416;2023-02-15T00:44:24;97842.31;;;4.19;54.17
45078;BME280;60508;42.622;25.416;2023-02-15T00:46:50;97836.13;;;4.04;52.58
45078;BME280;60508;42.622;25.416;2023-02-15T00:49:16;97856.19;;;3.75;53.77
45078;BME280;60508;42.622;25.416;2023-02-15T00:51:42;97850.50;;;3.47;53.79
45078;BME280;60508;42.622;25.416;2023-02-15T00:54:08;97853.56;;;3.19;54.30
45078;BME280;60508;42.622;25.416;2023-02-15T00:56:34;97846.28;;;3.13;54.76
45078;BME280;60508;42.622;25.416;2023-02-15T00:59:00;97840.47;;;3.09;54.90
45078;BME280;60508;42.622;25.416;2023-02-15T01:01:27;97846.13;;;3.06;55.02
45078;BME280;60508;42.622;25.416;2023-02-15T01:03:53;97842.34;;;2.92;55.96
45078;BME280;60508;42.622;25.416;2023-02-15T01:06:19;97839.53;;;2.94;55.57
45078;BME280;60508;42.622;25.416;2023-02-15T01:08:46;97843.03;;;2.86;55.71
45078;BME280;60508;42.622;25.416;2023-02-15T01:11:15;97843.34;;;2.83;56.18
45078;BME280;60508;42.622;25.416;2023-02-15T01:13:53;97846.47;;;2.95;55.86
45078;BME280;60508;42.622;25.416;2023-02-15T01:16:20;97857.78;;;2.81;56.32
45078;BME280;60508;42.622;25.416;2023-02-15T01:18:46;97858.28;;;2.92;56.02
45078;BME280;60508;42.622;25.416;2023-02-15T01:21:17;97850.63;;;3.06;55.36
45078;BME280;60508;42.622;25.416;2023-02-15T01:23:43;97851.75;;;3.11;55.27
45078;BME280;60508;42.622;25.416;2023-02-15T01:26:12;97845.28;;;3.14;55.24
45078;BME280;60508;42.622;25.416;2023-02-15T01:28:38;97844.47;;;3.14;55.26
45078;BME280;60508;42.622;25.416;2023-02-15T01:31:06;97856.72;;;3.15;55.24
45078;BME280;60508;42.622;25.416;2023-02-15T01:33:32;97856.72;;;3.15;54.99
45078;BME280;60508;42.622;25.416;2023-02-15T01:35:58;97848.28;;;3.11;55.37
45078;BME280;60508;42.622;25.416;2023-02-15T01:38:24;97847.16;;;2.97;55.81
45078;BME280;60508;42.622;25.416;2023-02-15T01:40:52;97844.00;;;2.85;55.46
45078;BME280;60508;42.622;25.416;2023-02-15T01:43:18;97846.00;;;2.83;55.35
45078;BME280;60508;42.622;25.416;2023-02-15T01:45:47;97844.19;;;2.76;55.44
45078;BME280;60508;42.622;25.416;2023-02-15T01:48:20;97839.72;;;2.68;55.70
45078;BME280;60508;42.622;25.416;2023-02-15T01:50:52;97851.84;;;2.62;56.23
45078;BME280;60508;42.622;25.416;2023-02-15T01:53:25;97839.38;;;2.54;56.36
45078;BME280;60508;42.622;25.416;2023-02-15T01:55:57;97841.88;;;2.48;56.59
45078;BME280;60508;42.622;25.416;2023-02-15T01:58:26;97833.09;;;2.47;56.83
45078;BME280;60508;42.622;25.416;2023-02-15T02:00:54;97844.69;;;2.38;56.97
45078;BME280;60508;42.622;25.416;2023-02-15T02:03:54;97835.88;;;2.29;57.47
45078;BME280;60508;42.622;25.416;2023-02-15T02:06:16;97835.72;;;2.23;57.78
45078;BME280;60508;42.622;25.416;2023-02-15T02:08:43;97835.88;;;2.13;58.05
45078;BME280;60508;42.622;25.416;2023-02-15T02:11:11;97839.72;;;2.10;57.85
45078;BME280;60508;42.622;25.416;2023-02-15T02:13:38;97840.19;;;2.06;58.04
45078;BME280;60508;42.622;25.416;2023-02-15T02:16:32;97845.63;;;1.88;58.26
45078;BME280;60508;42.622;25.416;2023-02-15T02:35:22;97858.84;;;1.71;59.47
45078;BME280;60508;42.622;25.416;2023-02-15T02:38:27;97852.66;;;1.62;59.41
45078;BME280;60508;42.622;25.416;2023-02-15T02:46:30;97858.72;;;1.46;60.50
45078;BME280;60508;42.622;25.416;2023-02-15T02:49:01;97861.16;;;1.40;60.02
45078;BME280;60508;42.622;25.416;2023-02-15T02:51:30;97857.13;;;1.27;60.55
45078;BME280;60508;42.622;25.416;2023-02-15T02:53:59;97857.91;;;1.12;60.98
45078;BME280;60508;42.622;25.416;2023-02-15T02:58:59;97864.59;;;0.98;62.40
45078;BME280;60508;42.622;25.416;2023-02-15T03:01:55;97868.25;;;1.05;61.71
45078;BME280;60508;42.622;25.416;2023-02-15T03:04:28;97864.97;;;1.11;61.88
45078;BME280;60508;42.622;25.416;2023-02-15T03:07:03;97868.84;;;1.17;61.71
45078;BME280;60508;42.622;25.416;2023-02-15T03:09:36;97866.69;;;1.20;61.39
45078;BME280;60508;42.622;25.416;2023-02-15T03:12:15;97868.94;;;1.07;62.25
45078;BME280;60508;42.622;25.416;2023-02-15T03:14:54;97871.53;;;1.25;61.86
45078;BME280;60508;42.622;25.416;2023-02-15T03:17:23;97874.88;;;1.35;61.22
45078;BME280;60508;42.622;25.416;2023-02-15T03:19:51;97879.09;;;1.46;61.16
45078;BME280;60508;42.622;25.416;2023-02-15T03:22:22;97880.59;;;1.49;60.51
45078;BME280;60508;42.622;25.416;2023-02-15T03:27:21;97879.41;;;1.43;60.42
45078;BME280;60508;42.622;25.416;2023-02-15T03:29:53;97881.38;;;1.41;60.36
45078;BME280;60508;42.622;25.416;2023-02-15T03:32:21;97888.31;;;1.42;60.63
45078;BME280;60508;42.622;25.416;2023-02-15T03:34:48;97886.38;;;1.44;60.19
45078;BME280;60508;42.622;25.416;2023-02-15T03:37:32;97882.66;;;1.37;60.42
45078;BME280;60508;42.622;25.416;2023-02-15T03:40:14;97893.41;;;1.35;60.40
45078;BME280;60508;42.622;25.416;2023-02-15T03:43:07;97898.06;;;1.33;60.51
45078;BME280;60508;42.622;25.416;2023-02-15T03:45:37;97891.53;;;1.27;60.67
45078;BME280;60508;42.622;25.416;2023-02-15T03:48:05;97884.38;;;0.94;61.27
45078;BME280;60508;42.622;25.416;2023-02-15T03:50:35;97913.94;;;1.07;61.18
45078;BME280;60508;42.622;25.416;2023-02-15T03:53:22;97908.03;;;1.13;61.23
45078;BME280;60508;42.622;25.416;2023-02-15T03:55:52;97903.09;;;1.18;60.91
45078;BME280;60508;42.622;25.416;2023-02-15T03:58:19;97907.22;;;1.21;60.83
45078;BME280;60508;42.622;25.416;2023-02-15T04:01:11;97921.22;;;1.31;60.46
45078;BME280;60508;42.622;25.416;2023-02-15T04:04:02;97918.09;;;1.36;60.71
45078;BME280;60508;42.622;25.416;2023-02-15T04:06:32;97927.53;;;1.38;60.73
45078;BME280;60508;42.622;25.416;2023-02-15T04:08:57;97913.50;;;1.46;60.13
45078;BME280;60508;42.622;25.416;2023-02-15T04:11:42;97930.56;;;1.52;60.29
45078;BME280;60508;42.622;25.416;2023-02-15T04:14:07;97923.06;;;1.39;60.37
45078;BME280;60508;42.622;25.416;2023-02-15T04:16:53;97924.47;;;1.51;60.02
45078;BME280;60508;42.622;25.416;2023-02-15T04:19:19;97930.16;;;1.64;59.95
45078;BME280;60508;42.622;25.416;2023-02-15T04:22:03;97926.56;;;1.74;59.08
45078;BME280;60508;42.622;25.416;2023-02-15T04:24:48;97926.59;;;1.82;59.31
45078;BME280;60508;42.622;25.416;2023-02-15T04:27:33;97935.91;;;1.94;58.50
45078;BME280;60508;42.622;25.416;2023-02-15T04:29:59;97937.53;;;1.87;58.88
45078;BME280;60508;42.622;25.416;2023-02-15T04:32:25;97931.47;;;2.03;58.28
45078;BME280;60508;42.622;25.416;2023-02-15T04:34:52;97928.00;;;2.11;57.81
45078;BME280;60508;42.622;25.416;2023-02-15T04:37:18;97935.66;;;2.14;58.17
45078;BME280;60508;42.622;25.416;2023-02-15T04:39:44;97942.81;;;2.22;57.88
45078;BME280;60508;42.622;25.416;2023-02-15T04:42:11;97939.31;;;2.29;58.55
45078;BME280;60508;42.622;25.416;2023-02-15T04:44:37;97938.47;;;2.12;58.78
45078;BME280;60508;42.622;25.416;2023-02-15T04:47:03;97942.78;;;2.13;58.81
45078;BME280;60508;42.622;25.416;2023-02-15T04:49:29;97950.06;;;2.19;58.09
45078;BME280;60508;42.622;25.416;2023-02-15T04:51:55;97952.06;;;2.17;57.94
45078;BME280;60508;42.622;25.416;2023-02-15T04:54:22;97957.56;;;2.32;58.19
45078;BME280;60508;42.622;25.416;2023-02-15T04:56:48;97949.25;;;2.19;58.24
45078;BME280;60508;42.622;25.416;2023-02-15T04:59:13;97956.06;;;2.22;57.58
45078;BME280;60508;42.622;25.416;2023-02-15T05:01:39;97955.00;;;2.06;57.92
45078;BME280;60508;42.622;25.416;2023-02-15T05:04:06;97952.34;;;1.98;57.86
45078;BME280;60508;42.622;25.416;2023-02-15T05:06:33;97956.25;;;1.86;58.83
45078;BME280;60508;42.622;25.416;2023-02-15T05:08:59;97963.63;;;1.66;59.92
45078;BME280;60508;42.622;25.416;2023-02-15T05:11:26;97960.88;;;1.83;58.93
45078;BME280;60508;42.622;25.416;2023-02-15T05:13:52;97964.75;;;1.97;59.24
45078;BME280;60508;42.622;25.416;2023-02-15T05:16:19;97967.78;;;2.11;58.60
45078;BME280;60508;42.622;25.416;2023-02-15T05:18:45;97975.59;;;2.12;58.46
45078;BME280;60508;42.622;25.416;2023-02-15T05:21:11;97980.84;;;2.04;59.41
45078;BME280;60508;42.622;25.416;2023-02-15T05:23:39;97983.72;;;2.19;58.66
45078;BME280;60508;42.622;25.416;2023-02-15T05:26:05;97988.97;;;2.03;59.30
45078;BME280;60508;42.622;25.416;2023-02-15T05:28:49;97985.41;;;2.28;58.90
45078;BME280;60508;42.622;25.416;2023-02-15T05:31:19;97979.19;;;2.46;59.25
45078;BME280;60508;42.622;25.416;2023-02-15T05:33:45;97990.97;;;2.60;58.46
45078;BME280;60508;42.622;25.416;2023-02-15T05:36:11;98001.09;;;2.72;58.45
45078;BME280;60508;42.622;25.416;2023-02-15T05:38:38;97989.00;;;2.70;58.13
45078;BME280;60508;42.622;25.416;2023-02-15T05:41:05;98004.22;;;2.60;58.79
45078;BME280;60508;42.622;25.416;2023-02-15T05:43:32;98010.91;;;2.80;58.34
45078;BME280;60508;42.622;25.416;2023-02-15T05:45:58;98021.34;;;2.73;58.59
45078;BME280;60508;42.622;25.416;2023-02-15T05:48:26;98018.06;;;2.88;57.74
45078;BME280;60508;42.622;25.416;2023-02-15T05:51:12;98025.00;;;2.81;57.82
45078;BME280;60508;42.622;25.416;2023-02-15T05:53:39;98025.00;;;2.81;57.96
45078;BME280;60508;42.622;25.416;2023-02-15T05:56:07;98025.56;;;3.09;57.42
45078;BME280;60508;42.622;25.416;2023-02-15T05:58:37;98035.19;;;3.26;57.01
45078;BME280;60508;42.622;25.416;2023-02-15T06:01:16;98033.19;;;3.45;56.45
45078;BME280;60508;42.622;25.416;2023-02-15T06:03:43;98031.84;;;3.65;55.17
45078;BME280;60508;42.622;25.416;2023-02-15T06:06:10;98040.63;;;3.74;54.84
45078;BME280;60508;42.622;25.416;2023-02-15T06:08:37;98036.78;;;3.85;54.52
45078;BME280;60508;42.622;25.416;2023-02-15T06:11:04;98027.81;;;3.86;54.04
45078;BME280;60508;42.622;25.416;2023-02-15T06:13:31;98037.28;;;3.89;54.59
45078;BME280;60508;42.622;25.416;2023-02-15T06:15:58;98040.56;;;4.07;54.18
45078;BME280;60508;42.622;25.416;2023-02-15T06:18:24;98033.66;;;4.29;54.13
45078;BME280;60508;42.622;25.416;2023-02-15T06:20:50;98045.75;;;4.40;53.40
45078;BME280;60508;42.622;25.416;2023-02-15T06:23:16;98041.03;;;4.50;53.41
45078;BME280;60508;42.622;25.416;2023-02-15T06:25:42;98039.50;;;4.64;52.86
45078;BME280;60508;42.622;25.416;2023-02-15T06:28:08;98045.41;;;4.74;52.52
45078;BME280;60508;42.622;25.416;2023-02-15T06:30:34;98043.56;;;4.83;52.58
45078;BME280;60508;42.622;25.416;2023-02-15T06:33:00;98040.44;;;4.71;52.26
45078;BME280;60508;42.622;25.416;2023-02-15T06:35:26;98044.28;;;4.69;52.06
45078;BME280;60508;42.622;25.416;2023-02-15T06:37:52;98049.88;;;4.82;51.45
45078;BME280;60508;42.622;25.416;2023-02-15T06:40:18;98048.47;;;4.94;51.56
45078;BME280;60508;42.622;25.416;2023-02-15T06:42:44;98051.22;;;5.09;50.13
45078;BME280;60508;42.622;25.416;2023-02-15T06:45:11;98047.53;;;5.10;49.77
45078;BME280;60508;42.622;25.416;2023-02-15T06:47:37;98051.84;;;5.11;49.22
45078;BME280;60508;42.622;25.416;2023-02-15T06:50:04;98056.94;;;5.21;49.19
45078;BME280;60508;42.622;25.416;2023-02-15T06:52:30;98051.78;;;5.20;49.65
45078;BME280;60508;42.622;25.416;2023-02-15T06:54:56;98046.75;;;5.02;49.70
45078;BME280;60508;42.622;25.416;2023-02-15T06:57:22;98040.53;;;4.55;51.18
45078;BME280;60508;42.622;25.416;2023-02-15T06:59:48;98047.09;;;4.99;50.10
45078;BME280;60508;42.622;25.416;2023-02-15T07:02:14;98049.63;;;5.23;49.22
45078;BME280;60508;42.622;25.416;2023-02-15T07:04:40;98048.72;;;5.31;49.26
45078;BME280;60508;42.622;25.416;2023-02-15T07:07:10;98058.47;;;5.39;48.34
45078;BME280;60508;42.622;25.416;2023-02-15T07:09:38;98047.19;;;5.37;48.62
45078;BME280;60508;42.622;25.416;2023-02-15T07:12:04;98048.78;;;5.46;48.82
45078;BME280;60508;42.622;25.416;2023-02-15T07:14:49;98049.53;;;5.55;48.92
45078;BME280;60508;42.622;25.416;2023-02-15T07:17:14;98047.56;;;5.72;48.30
45078;BME280;60508;42.622;25.416;2023-02-15T07:19:40;98050.28;;;5.63;47.96
45078;BME280;60508;42.622;25.416;2023-02-15T07:22:06;98045.94;;;5.24;48.76
45078;BME280;60508;42.622;25.416;2023-02-15T07:24:32;98053.84;;;4.86;49.63
45078;BME280;60508;42.622;25.416;2023-02-15T07:26:58;98043.91;;;4.80;49.95
45078;BME280;60508;42.622;25.416;2023-02-15T07:29:24;98054.81;;;4.93;49.72
45078;BME280;60508;42.622;25.416;2023-02-15T07:31:50;98054.91;;;5.00;48.91
45078;BME280;60508;42.622;25.416;2023-02-15T07:34:16;98052.84;;;4.87;49.45
45078;BME280;60508;42.622;25.416;2023-02-15T07:36:42;98039.56;;;5.10;49.62
45078;BME280;60508;42.622;25.416;2023-02-15T07:39:10;98030.53;;;5.35;47.71
45078;BME280;60508;42.622;25.416;2023-02-15T07:41:36;98053.88;;;5.71;47.50
45078;BME280;60508;42.622;25.416;2023-02-15T07:44:13;98049.91;;;6.05;46.72
45078;BME280;60508;42.622;25.416;2023-02-15T07:46:40;98035.22;;;5.85;47.09
45078;BME280;60508;42.622;25.416;2023-02-15T07:49:06;98044.44;;;5.83;47.40
45078;BME280;60508;42.622;25.416;2023-02-15T07:51:32;98051.97;;;5.79;47.12
45078;BME280;60508;42.622;25.416;2023-02-15T07:53:58;98039.97;;;5.98;47.36
45078;BME280;60508;42.622;25.416;2023-02-15T07:56:24;98047.06;;;6.21;46.25
45078;BME280;60508;42.622;25.416;2023-02-15T07:58:50;98049.97;;;6.71;46.22
45078;BME280;60508;42.622;25.416;2023-02-15T08:01:17;98057.53;;;7.04;44.91
45078;BME280;60508;42.622;25.416;2023-02-15T08:03:44;98050.16;;;7.27;44.43
45078;BME280;60508;42.622;25.416;2023-02-15T08:06:10;98053.72;;;7.56;44.12
45078;BME280;60508;42.622;25.416;2023-02-15T08:08:39;98053.09;;;7.54;44.11
45078;BME280;60508;42.622;25.416;2023-02-15T08:11:17;98060.13;;;7.62;44.06
45078;BME280;60508;42.622;25.416;2023-02-15T08:14:00;98059.38;;;7.68;43.81
45078;BME280;60508;42.622;25.416;2023-02-15T08:16:30;98056.34;;;7.78;43.85
45078;BME280;60508;42.622;25.416;2023-02-15T08:18:58;98054.63;;;7.92;43.56
45078;BME280;60508;42.622;25.416;2023-02-15T08:21:27;98053.97;;;8.18;43.19
45078;BME280;60508;42.622;25.416;2023-02-15T08:23:53;98052.81;;;8.34;42.51
45078;BME280;60508;42.622;25.416;2023-02-15T08:26:21;98045.78;;;8.26;42.54
45078;BME280;60508;42.622;25.416;2023-02-15T08:28:47;98058.31;;;8.54;42.42
45078;BME280;60508;42.622;25.416;2023-02-15T08:31:14;98055.22;;;8.57;42.53
45078;BME280;60508;42.622;25.416;2023-02-15T08:33:41;98048.03;;;8.57;41.79
45078;BME280;60508;42.622;25.416;2023-02-15T08:36:11;98052.31;;;8.52;42.44
45078;BME280;60508;42.622;25.416;2023-02-15T08:38:38;98047.88;;;8.66;42.44
45078;BME280;60508;42.622;25.416;2023-02-15T08:41:22;98045.25;;;8.86;41.67
45078;BME280;60508;42.622;25.416;2023-02-15T08:43:50;98050.50;;;9.21;41.25
45078;BME280;60508;42.622;25.416;2023-02-15T08:46:18;98057.75;;;9.54;40.53
45078;BME280;60508;42.622;25.416;2023-02-15T08:48:44;98040.44;;;9.76;40.06
45078;BME280;60508;42.622;25.416;2023-02-15T08:51:13;98051.50;;;10.53;38.27
45078;BME280;60508;42.622;25.416;2023-02-15T08:53:41;98050.69;;;10.98;38.12
45078;BME280;60508;42.622;25.416;2023-02-15T08:56:08;98051.91;;;11.91;35.66
45078;BME280;60508;42.622;25.416;2023-02-15T08:58:34;98058.50;;;12.94;33.82
45078;BME280;60508;42.622;25.416;2023-02-15T09:01:00;98059.41;;;12.88;33.83
45078;BME280;60508;42.622;25.416;2023-02-15T09:03:28;98051.31;;;14.27;32.72
45078;BME280;60508;42.622;25.416;2023-02-15T09:05:59;98045.69;;;16.35;29.33
45078;BME280;60508;42.622;25.416;2023-02-15T09:08:26;98046.81;;;17.22;27.00
45078;BME280;60508;42.622;25.416;2023-02-15T09:10:53;98049.19;;;17.73;26.45
45078;BME280;60508;42.622;25.416;2023-02-15T09:13:20;98051.22;;;19.47;24.23
45078;BME280;60508;42.622;25.416;2023-02-15T09:15:46;98055.25;;;20.78;22.89
45078;BME280;60508;42.622;25.416;2023-02-15T09:18:12;98051.50;;;21.29;21.75
45078;BME280;60508;42.622;25.416;2023-02-15T09:20:44;98048.00;;;22.85;20.36
45078;BME280;60508;42.622;25.416;2023-02-15T09:23:10;98052.66;;;23.85;19.27
45078;BME280;60508;42.622;25.416;2023-02-15T09:25:36;98057.81;;;24.52;18.32
45078;BME280;60508;42.622;25.416;2023-02-15T09:28:02;98057.56;;;24.68;18.02
45078;BME280;60508;42.622;25.416;2023-02-15T09:30:28;98064.09;;;24.86;17.40
45078;BME280;60508;42.622;25.416;2023-02-15T09:32:54;98058.25;;;25.15;17.15
45078;BME280;60508;42.622;25.416;2023-02-15T09:35:20;98051.09;;;25.42;17.23
45078;BME280;60508;42.622;25.416;2023-02-15T09:37:46;98044.56;;;27.83;14.49
45078;BME280;60508;42.622;25.416;2023-02-15T09:40:15;98049.44;;;28.21;14.11
45078;BME280;60508;42.622;25.416;2023-02-15T09:42:51;98053.91;;;29.72;13.66
45078;BME280;60508;42.622;25.416;2023-02-15T09:45:36;98048.00;;;30.73;12.68
45078;BME280;60508;42.622;25.416;2023-02-15T09:51:06;98051.53;;;29.61;13.31
45078;BME280;60508;42.622;25.416;2023-02-15T09:53:45;98052.69;;;30.48;12.22
45078;BME280;60508;42.622;25.416;2023-02-15T09:58:59;98034.50;;;26.46;14.74
45078;BME280;60508;42.622;25.416;2023-02-15T10:02:15;98031.59;;;26.42;14.87
45078;BME280;60508;42.622;25.416;2023-02-15T10:04:58;98022.94;;;24.06;16.05
45078;BME280;60508;42.622;25.416;2023-02-15T10:08:13;98021.00;;;26.04;15.42
45078;BME280;60508;42.622;25.416;2023-02-15T10:13:41;98018.75;;;27.97;14.25
45078;BME280;60508;42.622;25.416;2023-02-15T10:19:07;98017.84;;;29.08;13.38
45078;BME280;60508;42.622;25.416;2023-02-15T10:27:03;98006.94;;;29.96;12.79
45078;BME280;60508;42.622;25.416;2023-02-15T10:29:35;98005.84;;;30.22;12.80
45078;BME280;60508;42.622;25.416;2023-02-15T10:32:28;98003.22;;;29.71;12.80
45078;BME280;60508;42.622;25.416;2023-02-15T10:35:14;97999.34;;;28.70;13.40
45078;BME280;60508;42.622;25.416;2023-02-15T10:40:31;97986.31;;;29.01;13.64
45078;BME280;60508;42.622;25.416;2023-02-15T10:43:08;97977.56;;;31.15;12.54
45078;BME280;60508;42.622;25.416;2023-02-15T10:45:49;97989.59;;;33.32;11.14
45078;BME280;60508;42.622;25.416;2023-02-15T10:57:06;97968.06;;;36.01;9.16
45078;BME280;60508;42.622;25.416;2023-02-15T11:07:47;97952.72;;;32.19;11.51
45078;BME280;60508;42.622;25.416;2023-02-15T11:13:18;97960.28;;;33.57;10.37
45078;BME280;60508;42.622;25.416;2023-02-15T11:15:49;97971.59;;;33.84;10.57
45078;BME280;60508;42.622;25.416;2023-02-15T11:18:32;97946.38;;;31.34;11.62
45078;BME280;60508;42.622;25.416;2023-02-15T11:21:30;97950.25;;;26.14;14.97
45078;BME280;60508;42.622;25.416;2023-02-15T11:24:10;97952.44;;;26.83;15.05
45078;BME280;60508;42.622;25.416;2023-02-15T11:29:30;97943.97;;;30.55;12.14
45078;BME280;60508;42.622;25.416;2023-02-15T11:32:59;97949.44;;;31.17;11.92
45078;BME280;60508;42.622;25.416;2023-02-15T11:40:23;97945.72;;;28.84;13.11
45078;BME280;60508;42.622;25.416;2023-02-15T11:42:55;97938.09;;;30.44;12.14
45078;BME280;60508;42.622;25.416;2023-02-15T11:45:32;97936.66;;;31.12;11.58
45078;BME280;60508;42.622;25.416;2023-02-15T11:48:00;97927.38;;;31.08;11.55
45078;BME280;60508;42.622;25.416;2023-02-15T11:50:32;97938.97;;;29.44;12.73
45078;BME280;60508;42.622;25.416;2023-02-15T11:53:04;97938.09;;;30.44;12.11
45078;BME280;60508;42.622;25.416;2023-02-15T11:55:31;97928.44;;;28.95;13.22
45078;BME280;60508;42.622;25.416;2023-02-15T12:03:52;97910.88;;;28.91;12.52
45078;BME280;60508;42.622;25.416;2023-02-15T12:06:27;97920.50;;;30.65;12.08
45078;BME280;60508;42.622;25.416;2023-02-15T12:12:21;97922.22;;;30.32;11.96
45078;BME280;60508;42.622;25.416;2023-02-15T12:14:51;97911.63;;;31.53;11.78
45078;BME280;60508;42.622;25.416;2023-02-15T12:17:20;97906.75;;;31.78;11.54
45078;BME280;60508;42.622;25.416;2023-02-15T12:19:47;97901.75;;;27.84;13.61
45078;BME280;60508;42.622;25.416;2023-02-15T12:22:24;97898.13;;;27.01;13.63
45078;BME280;60508;42.622;25.416;2023-02-15T12:25:00;97901.88;;;27.31;13.62
45078;BME280;60508;42.622;25.416;2023-02-15T12:27:29;97908.09;;;28.02;13.61
45078;BME280;60508;42.622;25.416;2023-02-15T12:30:00;97896.59;;;29.44;12.49
45078;BME280;60508;42.622;25.416;2023-02-15T12:32:31;97908.78;;;28.29;13.12
45078;BME280;60508;42.622;25.416;2023-02-15T12:35:02;97904.47;;;28.10;13.57
45078;BME280;60508;42.622;25.416;2023-02-15T12:37:33;97912.97;;;28.35;13.51
45078;BME280;60508;42.622;25.416;2023-02-15T12:40:23;97901.97;;;27.70;13.26
45078;BME280;60508;42.622;25.416;2023-02-15T12:42:47;97905.81;;;26.55;13.85
45078;BME280;60508;42.622;25.416;2023-02-15T12:45:21;97905.81;;;27.95;13.05
45078;BME280;60508;42.622;25.416;2023-02-15T12:48:07;97904.50;;;30.00;11.91
45078;BME280;60508;42.622;25.416;2023-02-15T12:50:34;97890.19;;;27.35;13.75
45078;BME280;60508;42.622;25.416;2023-02-15T12:55:58;97892.44;;;26.80;14.14
45078;BME280;60508;42.622;25.416;2023-02-15T12:58:27;97884.66;;;27.17;13.88
45078;BME280;60508;42.622;25.416;2023-02-15T13:01:18;97891.19;;;26.37;14.26
45078;BME280;60508;42.622;25.416;2023-02-15T13:04:03;97894.97;;;25.47;15.43
45078;BME280;60508;42.622;25.416;2023-02-15T13:06:34;97889.91;;;24.40;15.98
45078;BME280;60508;42.622;25.416;2023-02-15T13:09:20;97877.03;;;24.40;16.11
45078;BME280;60508;42.622;25.416;2023-02-15T13:11:47;97880.38;;;22.78;17.48
45078;BME280;60508;42.622;25.416;2023-02-15T13:14:18;97884.22;;;24.36;16.09
45078;BME280;60508;42.622;25.416;2023-02-15T13:16:47;97883.63;;;26.60;14.54
45078;BME280;60508;42.622;25.416;2023-02-15T13:19:18;97878.91;;;26.61;14.38
45078;BME280;60508;42.622;25.416;2023-02-15T13:21:48;97881.72;;;25.81;14.65
45078;BME280;60508;42.622;25.416;2023-02-15T13:24:22;97882.44;;;25.41;15.22
45078;BME280;60508;42.622;25.416;2023-02-15T13:26:50;97886.38;;;23.98;16.06
45078;BME280;60508;42.622;25.416;2023-02-15T13:31:52;97889.75;;;24.09;16.18
45078;BME280;60508;42.622;25.416;2023-02-15T13:39:49;97885.44;;;25.85;14.84
45078;BME280;60508;42.622;25.416;2023-02-15T13:42:37;97897.97;;;25.01;15.22
45078;BME280;60508;42.622;25.416;2023-02-15T13:51:05;97888.38;;;25.57;14.99
45078;BME280;60508;42.622;25.416;2023-02-15T13:56:12;97891.91;;;24.90;15.26
45078;BME280;60508;42.622;25.416;2023-02-15T14:01:54;97892.59;;;24.95;15.76
45078;BME280;60508;42.622;25.416;2023-02-15T14:04:42;97893.81;;;24.11;16.23
45078;BME280;60508;42.622;25.416;2023-02-15T14:07:21;97888.06;;;25.13;15.70
45078;BME280;60508;42.622;25.416;2023-02-15T14:12:46;97890.34;;;24.47;15.86
45078;BME280;60508;42.622;25.416;2023-02-15T14:15:28;97891.56;;;23.20;16.84
45078;BME280;60508;42.622;25.416;2023-02-15T14:31:39;97888.25;;;23.69;16.41
45078;BME280;60508;42.622;25.416;2023-02-15T14:34:19;97881.41;;;23.53;16.17
45078;BME280;60508;42.622;25.416;2023-02-15T14:36:49;97884.81;;;23.78;16.19
45078;BME280;60508;42.622;25.416;2023-02-15T14:42:28;97890.41;;;19.21;20.11
45078;BME280;60508;42.622;25.416;2023-02-15T14:45:12;97882.78;;;17.66;22.09
45078;BME280;60508;42.622;25.416;2023-02-15T14:47:47;97886.16;;;16.81;23.37
45078;BME280;60508;42.622;25.416;2023-02-15T14:53:36;97890.75;;;14.28;26.28
45078;BME280;60508;42.622;25.416;2023-02-15T15:01:33;97888.09;;;13.09;26.99
45078;BME280;60508;42.622;25.416;2023-02-15T15:04:05;97873.06;;;12.59;27.61
45078;BME280;60508;42.622;25.416;2023-02-15T15:06:37;97891.06;;;12.35;28.32
45078;BME280;60508;42.622;25.416;2023-02-15T15:09:20;97890.47;;;11.78;28.72
45078;BME280;60508;42.622;25.416;2023-02-15T15:11:50;97897.03;;;11.63;29.51
45078;BME280;60508;42.622;25.416;2023-02-15T15:16:59;97897.47;;;11.60;29.47
45078;BME280;60508;42.622;25.416;2023-02-15T15:22:23;97906.69;;;13.29;26.92
45078;BME280;60508;42.622;25.416;2023-02-15T15:43:34;97902.88;;;13.07;25.95
45078;BME280;60508;42.622;25.416;2023-02-15T15:48:45;97901.72;;;12.12;27.80
45078;BME280;60508;42.622;25.416;2023-02-15T15:53:43;97918.69;;;11.50;29.09
45078;BME280;60508;42.622;25.416;2023-02-15T15:56:20;97910.91;;;11.17;29.74
45078;BME280;60508;42.622;25.416;2023-02-15T15:58:58;97908.75;;;11.00;29.83
45078;BME280;60508;42.622;25.416;2023-02-15T16:01:27;97910.31;;;10.83;30.12